Time;durP1;ratioP1;P1;durP2;ratioP2;P2;SDS_P1;SDS_P2;PMS_P1;PMS_P2;Temp;Humidity;BMP_temperature;BMP_pressure;BME280_temperature;BME280_humidity;BME280_pressure;Samples;Min_cycle;Max_cycle;Signal;HPM_P1;HPM_P2
2023/05/09 00:01:48;;;;;;;17.27;15.27;;;;;;;;;;5011285;28;20853;-87
2023/05/09 00:04:15;;;;;;;19.93;15.53;;;;;;;;;;5012321;28;20654;-88
2023/05/09 00:06:43;;;;;;;21.47;14.87;;;;;;;;;;5014294;28;20246;-87
2023/05/09 00:09:10;;;;;;;19.17;14.53;;;;;;;;;;5021934;28;20224;-87
2023/05/09 00:11:37;;;;;;;19.27;15.33;;;;;;;;;;5012424;28;20227;-87
2023/05/09 00:14:04;;;;;;;18.30;15.50;;;;;;;;;;5024374;28;20210;-87
2023/05/09 00:16:33;;;;;;;16.03;14.37;;;;;;;;;;5025872;28;20230;-87
2023/05/09 00:19:00;;;;;;;17.37;14.90;;;;;;;;;;5030869;28;20219;-87
2023/05/09 00:21:27;;;;;;;19.47;15.63;;;;;;;;;;5030426;28;20246;-87
2023/05/09 00:23:54;;;;;;;22.77;16.27;;;;;;;;;;5032452;28;20202;-87
2023/05/09 00:26:21;;;;;;;19.73;16.97;;;;;;;;;;5034034;28;20289;-87
2023/05/09 00:28:48;;;;;;;21.40;15.83;;;;;;;;;;5034327;28;20262;-88
2023/05/09 00:31:15;;;;;;;17.00;14.20;;;;;;;;;;5033863;28;20234;-87
2023/05/09 00:33:44;;;;;;;19.43;14.83;;;;;;;;;;5034393;28;20583;-87
2023/05/09 00:36:11;;;;;;;18.97;14.47;;;;;;;;;;5031860;28;20235;-88
2023/05/09 00:38:38;;;;;;;17.00;15.00;;;;;;;;;;5014307;28;20239;-87
2023/05/09 00:41:05;;;;;;;17.00;15.13;;;;;;;;;;5013780;28;20246;-87
2023/05/09 00:43:32;;;;;;;19.70;14.40;;;;;;;;;;5014315;28;20698;-87
2023/05/09 00:46:00;;;;;;;19.30;15.07;;;;;;;;;;5013680;28;20286;-87
2023/05/09 00:48:27;;;;;;;18.53;15.20;;;;;;;;;;5014545;28;20230;-87
2023/05/09 00:50:55;;;;;;;18.10;15.23;;;;;;;;;;5013887;28;20242;-87
2023/05/09 00:53:22;;;;;;;18.77;14.97;;;;;;;;;;5014324;28;20207;-87
2023/05/09 00:55:49;;;;;;;16.80;14.27;;;;;;;;;;5018859;28;20230;-87
2023/05/09 00:58:18;;;;;;;15.47;13.80;;;;;;;;;;5033742;28;20221;-87
2023/05/09 01:00:45;;;;;;;19.17;15.03;;;;;;;;;;5033241;28;20313;-87
2023/05/09 01:03:12;;;;;;;19.47;15.50;;;;;;;;;;5038775;28;20206;-87
2023/05/09 01:05:43;;;;;;;17.83;14.97;;;;;;;;;;5033130;28;20238;-87
2023/05/09 01:08:18;;;;;;;17.33;14.73;;;;;;;;;;5027655;28;20662;-87
2023/05/09 01:10:57;;;;;;;17.57;15.10;;;;;;;;;;5027942;28;20679;-87
2023/05/09 01:13:26;;;;;;;18.43;14.97;;;;;;;;;;5031703;28;20194;-87
2023/05/09 01:15:54;;;;;;;16.47;14.73;;;;;;;;;;5013406;28;20246;-87
2023/05/09 01:18:23;;;;;;;18.73;14.70;;;;;;;;;;5013755;28;20211;-87
2023/05/09 01:20:54;;;;;;;20.00;15.60;;;;;;;;;;5014012;28;20235;-87
2023/05/09 01:23:36;;;;;;;18.77;15.00;;;;;;;;;;5033602;28;20565;-87
2023/05/09 01:26:05;;;;;;;19.43;14.60;;;;;;;;;;5032607;28;20230;-87
2023/05/09 01:28:44;;;;;;;17.27;15.40;;;;;;;;;;5032921;28;20273;-87
2023/05/09 01:31:13;;;;;;;18.53;14.30;;;;;;;;;;5014815;28;20235;-87
2023/05/09 01:33:43;;;;;;;19.50;16.07;;;;;;;;;;5033100;28;20246;-87
2023/05/09 01:36:13;;;;;;;18.57;15.83;;;;;;;;;;5032290;28;20239;-87
2023/05/09 01:38:41;;;;;;;17.50;15.30;;;;;;;;;;5032719;28;20250;-87
2023/05/09 01:41:10;;;;;;;23.17;15.77;;;;;;;;;;5032098;28;20239;-87
2023/05/09 01:43:38;;;;;;;17.50;14.63;;;;;;;;;;5032706;28;20199;-88
2023/05/09 01:46:06;;;;;;;16.03;13.83;;;;;;;;;;5031539;28;20896;-87
2023/05/09 01:48:36;;;;;;;18.57;14.60;;;;;;;;;;5033561;28;20237;-87
2023/05/09 01:51:04;;;;;;;17.83;14.40;;;;;;;;;;5032040;28;20245;-87
2023/05/09 01:53:33;;;;;;;17.07;14.23;;;;;;;;;;5032706;28;20296;-87
2023/05/09 01:56:00;;;;;;;18.50;14.63;;;;;;;;;;5034322;28;20708;-87
2023/05/09 01:58:28;;;;;;;17.20;13.70;;;;;;;;;;5025337;28;20230;-87
2023/05/09 02:00:55;;;;;;;17.23;13.93;;;;;;;;;;5030255;28;20603;-87
2023/05/09 02:03:23;;;;;;;17.03;13.07;;;;;;;;;;5031911;28;20206;-87
2023/05/09 02:05:51;;;;;;;17.90;13.67;;;;;;;;;;5031540;28;20226;-87
2023/05/09 02:08:20;;;;;;;16.40;14.17;;;;;;;;;;5031479;28;20226;-87
2023/05/09 02:10:48;;;;;;;16.13;13.97;;;;;;;;;;5031404;28;20272;-87
2023/05/09 02:13:15;;;;;;;17.00;14.60;;;;;;;;;;5030249;28;20213;-87
2023/05/09 02:15:42;;;;;;;17.53;15.00;;;;;;;;;;5016301;28;20575;-87
2023/05/09 02:18:09;;;;;;;15.93;14.10;;;;;;;;;;5012995;28;20206;-87
2023/05/09 02:20:36;;;;;;;14.20;12.70;;;;;;;;;;5032568;28;20230;-85
2023/05/09 02:23:05;;;;;;;15.40;12.60;;;;;;;;;;5032399;28;20206;-87
2023/05/09 02:25:33;;;;;;;14.80;13.17;;;;;;;;;;5031815;28;20234;-87
2023/05/09 02:28:01;;;;;;;18.43;14.23;;;;;;;;;;5031757;28;20218;-87
2023/05/09 02:30:31;;;;;;;15.47;13.80;;;;;;;;;;5032088;28;20238;-87
2023/05/09 02:33:01;;;;;;;16.60;13.73;;;;;;;;;;5032381;28;20237;-87
2023/05/09 02:35:29;;;;;;;18.90;13.53;;;;;;;;;;5013885;28;20239;-87
2023/05/09 02:37:56;;;;;;;15.50;13.77;;;;;;;;;;5012685;28;20596;-87
2023/05/09 02:40:25;;;;;;;15.07;13.47;;;;;;;;;;5011635;28;20243;-87
2023/05/09 02:42:52;;;;;;;16.17;13.67;;;;;;;;;;5012500;28;20211;-87
2023/05/09 02:45:19;;;;;;;15.37;13.37;;;;;;;;;;5011579;28;20227;-87
2023/05/09 02:47:46;;;;;;;17.23;13.73;;;;;;;;;;5012072;28;20234;-87
2023/05/09 02:50:13;;;;;;;17.93;14.70;;;;;;;;;;5011993;28;20251;-87
2023/05/09 02:52:43;;;;;;;14.33;12.80;;;;;;;;;;5024351;28;20207;-87
2023/05/09 02:55:10;;;;;;;14.27;12.50;;;;;;;;;;5031084;28;20234;-87
2023/05/09 02:57:38;;;;;;;15.80;12.63;;;;;;;;;;5031453;28;20209;-88
2023/05/09 03:00:08;;;;;;;12.37;11.07;;;;;;;;;;5011280;28;20604;-87
2023/05/09 03:02:35;;;;;;;13.97;11.77;;;;;;;;;;5014779;28;20210;-87
2023/05/09 03:05:02;;;;;;;11.70;10.50;;;;;;;;;;5031214;28;20238;-87
2023/05/09 03:07:32;;;;;;;15.97;12.33;;;;;;;;;;5031883;28;20697;-87
2023/05/09 03:10:00;;;;;;;13.07;11.27;;;;;;;;;;5031021;28;20253;-87
2023/05/09 03:12:27;;;;;;;13.63;12.23;;;;;;;;;;5031467;28;20229;-87
2023/05/09 03:14:55;;;;;;;15.47;12.70;;;;;;;;;;5030944;28;20233;-87
2023/05/09 03:17:22;;;;;;;16.77;13.50;;;;;;;;;;5031651;28;20207;-87
2023/05/09 03:19:49;;;;;;;15.73;13.43;;;;;;;;;;5030783;28;20701;-87
2023/05/09 03:22:16;;;;;;;18.43;14.03;;;;;;;;;;5031222;28;20198;-87
2023/05/09 03:24:43;;;;;;;15.90;13.77;;;;;;;;;;5021744;28;20234;-87
2023/05/09 03:27:10;;;;;;;14.13;12.60;;;;;;;;;;5027301;28;20219;-86
2023/05/09 03:29:37;;;;;;;16.33;13.23;;;;;;;;;;5030623;28;20247;-87
2023/05/09 03:32:06;;;;;;;14.73;11.70;;;;;;;;;;5030960;28;20692;-88
2023/05/09 03:34:33;;;;;;;11.90;10.33;;;;;;;;;;5017160;28;20241;-87
2023/05/09 03:37:00;;;;;;;13.37;11.60;;;;;;;;;;5031202;28;20661;-87
2023/05/09 03:39:27;;;;;;;11.73;10.53;;;;;;;;;;5030983;28;20239;-87
2023/05/09 03:41:54;;;;;;;13.60;12.10;;;;;;;;;;5031083;28;20203;-87
2023/05/09 03:44:21;;;;;;;15.77;11.73;;;;;;;;;;5029520;28;20207;-86
2023/05/09 03:46:48;;;;;;;12.23;10.93;;;;;;;;;;5031422;28;20669;-89
2023/05/09 03:49:17;;;;;;;15.03;12.43;;;;;;;;;;5030773;28;20258;-87
2023/05/09 03:51:44;;;;;;;15.93;13.00;;;;;;;;;;5031480;28;20214;-88
2023/05/09 03:54:11;;;;;;;15.73;13.80;;;;;;;;;;5031024;28;20199;-88
2023/05/09 03:56:38;;;;;;;18.27;14.37;;;;;;;;;;5031590;28;20238;-88
2023/05/09 03:59:05;;;;;;;18.43;14.10;;;;;;;;;;5034790;28;20222;-88
2023/05/09 04:01:32;;;;;;;15.90;13.13;;;;;;;;;;5034620;28;20238;-89
2023/05/09 04:04:00;;;;;;;15.90;13.17;;;;;;;;;;5034928;28;20206;-89
2023/05/09 04:06:28;;;;;;;19.00;13.63;;;;;;;;;;5034558;28;20241;-88
2023/05/09 04:08:55;;;;;;;17.37;13.37;;;;;;;;;;5034552;28;20280;-89
2023/05/09 04:11:22;;;;;;;17.23;12.70;;;;;;;;;;5035524;28;20859;-91
2023/05/09 04:13:50;;;;;;;15.73;13.27;;;;;;;;;;5036421;28;20207;-91
2023/05/09 04:16:17;;;;;;;16.40;14.50;;;;;;;;;;5035676;28;20235;-91
2023/05/09 04:18:44;;;;;;;17.87;14.27;;;;;;;;;;5035463;28;20227;-91
2023/05/09 04:21:11;;;;;;;17.17;13.97;;;;;;;;;;5035078;28;20245;-91
2023/05/09 04:23:39;;;;;;;19.93;14.23;;;;;;;;;;5035609;28;20202;-87
2023/05/09 04:26:08;;;;;;;19.07;15.07;;;;;;;;;;5034010;28;20337;-85
2023/05/09 04:28:35;;;;;;;21.67;15.47;;;;;;;;;;5034454;28;20276;-85
2023/05/09 04:31:02;;;;;;;22.97;16.70;;;;;;;;;;5034682;28;20235;-91
2023/05/09 04:33:29;;;;;;;24.37;17.10;;;;;;;;;;5035404;28;20582;-90
2023/05/09 04:35:57;;;;;;;23.93;17.03;;;;;;;;;;5034053;28;20739;-91
2023/05/09 04:38:24;;;;;;;23.77;17.60;;;;;;;;;;5034889;28;20693;-91
2023/05/09 04:40:53;;;;;;;24.03;17.80;;;;;;;;;;5034467;28;20230;-91
2023/05/09 04:43:20;;;;;;;25.00;16.77;;;;;;;;;;5035252;28;20206;-91
2023/05/09 04:45:47;;;;;;;22.93;17.20;;;;;;;;;;5034579;28;20242;-91
2023/05/09 04:48:14;;;;;;;28.27;18.33;;;;;;;;;;5035323;28;20257;-91
2023/05/09 04:50:42;;;;;;;19.80;16.87;;;;;;;;;;5034552;28;20257;-91
2023/05/09 04:53:09;;;;;;;21.13;16.20;;;;;;;;;;5034944;28;20393;-90
2023/05/09 04:55:37;;;;;;;22.80;16.93;;;;;;;;;;5034343;28;20739;-90
2023/05/09 04:58:05;;;;;;;19.97;16.63;;;;;;;;;;5034632;28;20206;-91
2023/05/09 05:00:32;;;;;;;21.10;16.23;;;;;;;;;;5034491;28;20238;-91
2023/05/09 05:02:59;;;;;;;21.70;16.50;;;;;;;;;;5035258;28;20211;-90
2023/05/09 05:05:26;;;;;;;24.77;16.93;;;;;;;;;;5036367;28;20333;-88
2023/05/09 05:07:54;;;;;;;25.23;18.03;;;;;;;;;;5033810;28;20227;-86
2023/05/09 05:10:21;;;;;;;22.67;17.93;;;;;;;;;;5039300;28;20234;-86
2023/05/09 05:12:48;;;;;;;27.03;18.30;;;;;;;;;;5035198;28;20209;-86
2023/05/09 05:15:18;;;;;;;25.67;18.43;;;;;;;;;;5034521;28;20235;-87
2023/05/09 05:17:45;;;;;;;24.67;18.53;;;;;;;;;;5034628;28;20194;-87
2023/05/09 05:20:12;;;;;;;25.10;19.77;;;;;;;;;;5033124;28;20239;-87
2023/05/09 05:22:39;;;;;;;26.80;20.10;;;;;;;;;;5033885;28;20203;-86
2023/05/09 05:25:06;;;;;;;23.50;18.10;;;;;;;;;;5033198;28;20227;-86
2023/05/09 05:27:33;;;;;;;23.63;18.77;;;;;;;;;;5033629;28;20226;-86
2023/05/09 05:30:01;;;;;;;26.17;20.00;;;;;;;;;;5033012;28;20238;-86
2023/05/09 05:32:29;;;;;;;28.63;20.60;;;;;;;;;;5033395;28;20203;-86
2023/05/09 05:34:57;;;;;;;30.07;21.93;;;;;;;;;;5033002;28;20234;-87
2023/05/09 05:37:24;;;;;;;31.77;22.03;;;;;;;;;;5033010;28;20673;-87
2023/05/09 05:39:51;;;;;;;31.23;23.43;;;;;;;;;;5032435;28;20692;-87
2023/05/09 05:42:18;;;;;;;30.77;22.67;;;;;;;;;;5033282;28;20210;-87
2023/05/09 05:44:45;;;;;;;29.03;22.20;;;;;;;;;;5032607;28;20230;-87
2023/05/09 05:47:12;;;;;;;32.57;22.73;;;;;;;;;;5033205;28;20207;-87
2023/05/09 05:49:40;;;;;;;33.30;22.47;;;;;;;;;;5032310;28;20257;-86
2023/05/09 05:52:07;;;;;;;32.17;21.77;;;;;;;;;;5036025;28;20199;-87
2023/05/09 05:54:35;;;;;;;28.40;20.73;;;;;;;;;;5036612;28;20238;-86
2023/05/09 05:57:02;;;;;;;28.93;21.90;;;;;;;;;;5036977;28;20203;-86
2023/05/09 05:59:29;;;;;;;27.30;21.70;;;;;;;;;;5035670;28;20242;-87
2023/05/09 06:01:56;;;;;;;29.13;22.07;;;;;;;;;;5035308;28;20699;-86
2023/05/09 06:04:23;;;;;;;23.10;18.53;;;;;;;;;;5034868;28;20214;-86
2023/05/09 06:06:51;;;;;;;25.93;18.90;;;;;;;;;;5035858;28;20626;-86
2023/05/09 06:09:18;;;;;;;20.73;16.30;;;;;;;;;;5034829;28;20233;-86
2023/05/09 06:11:45;;;;;;;20.73;15.67;;;;;;;;;;5036412;28;20207;-87
2023/05/09 06:14:13;;;;;;;18.77;16.13;;;;;;;;;;5035337;28;20195;-87
2023/05/09 06:16:40;;;;;;;17.10;15.27;;;;;;;;;;5035585;28;20681;-87
2023/05/09 06:19:07;;;;;;;18.67;16.47;;;;;;;;;;5035449;28;20219;-87
2023/05/09 06:21:34;;;;;;;18.87;15.30;;;;;;;;;;5033990;28;20221;-87
2023/05/09 06:24:02;;;;;;;19.20;15.77;;;;;;;;;;5036241;28;20202;-88
2023/05/09 06:26:29;;;;;;;16.77;14.40;;;;;;;;;;5035320;28;20230;-87
2023/05/09 06:28:56;;;;;;;17.33;14.63;;;;;;;;;;5035484;28;20231;-88
2023/05/09 06:31:23;;;;;;;15.20;13.33;;;;;;;;;;5035318;28;20226;-88
2023/05/09 06:33:50;;;;;;;17.13;14.67;;;;;;;;;;5033412;28;20215;-88
2023/05/09 06:36:18;;;;;;;18.17;14.47;;;;;;;;;;5015917;28;20242;-88
2023/05/09 06:38:45;;;;;;;18.33;14.17;;;;;;;;;;5017188;28;20242;-87
2023/05/09 06:41:13;;;;;;;17.37;14.83;;;;;;;;;;5016073;28;20235;-88
2023/05/09 06:43:40;;;;;;;17.80;14.37;;;;;;;;;;5016883;28;20215;-87
2023/05/09 06:46:07;;;;;;;16.70;14.43;;;;;;;;;;5015834;28;20299;-88
2023/05/09 06:48:35;;;;;;;18.87;14.40;;;;;;;;;;5015829;28;20234;-88
2023/05/09 06:51:02;;;;;;;16.47;13.93;;;;;;;;;;5015503;28;20281;-88
2023/05/09 06:53:29;;;;;;;17.97;13.17;;;;;;;;;;5016604;28;20593;-88
2023/05/09 06:55:56;;;;;;;17.50;13.37;;;;;;;;;;5015649;28;20243;-88
2023/05/09 06:58:24;;;;;;;15.03;13.30;;;;;;;;;;5016213;28;20207;-88
2023/05/09 07:00:51;;;;;;;14.83;12.83;;;;;;;;;;5016200;28;20235;-88
2023/05/09 07:03:18;;;;;;;14.77;12.90;;;;;;;;;;5016299;28;20203;-88
2023/05/09 07:05:45;;;;;;;14.73;13.03;;;;;;;;;;5021411;28;20239;-88
2023/05/09 07:08:12;;;;;;;13.97;12.30;;;;;;;;;;5025161;28;20231;-88
2023/05/09 07:10:39;;;;;;;14.67;13.17;;;;;;;;;;5015735;28;20259;-88
2023/05/09 07:13:07;;;;;;;13.77;11.60;;;;;;;;;;5015693;28;20203;-87
2023/05/09 07:15:35;;;;;;;14.30;12.33;;;;;;;;;;5015209;28;20238;-87
2023/05/09 07:18:02;;;;;;;14.80;12.43;;;;;;;;;;5014394;28;20666;-86
2023/05/09 07:20:29;;;;;;;13.20;10.97;;;;;;;;;;5014285;28;20238;-86
2023/05/09 07:22:57;;;;;;;17.90;12.53;;;;;;;;;;5014715;28;20214;-87
2023/05/09 07:25:24;;;;;;;15.23;12.03;;;;;;;;;;5016238;28;20231;-88
2023/05/09 07:27:51;;;;;;;14.47;11.67;;;;;;;;;;5031501;28;20687;-87
2023/05/09 07:30:18;;;;;;;16.37;13.00;;;;;;;;;;5017048;28;20239;-87
2023/05/09 07:32:46;;;;;;;14.30;11.40;;;;;;;;;;5017303;28;20211;-86
2023/05/09 07:35:13;;;;;;;15.07;11.43;;;;;;;;;;5020827;28;20231;-90
2023/05/09 07:37:40;;;;;;;14.47;11.53;;;;;;;;;;5021258;28;20207;-89
2023/05/09 07:40:08;;;;;;;13.77;11.57;;;;;;;;;;5019605;28;20241;-88
2023/05/09 07:42:35;;;;;;;14.00;12.50;;;;;;;;;;5021603;28;20257;-89
2023/05/09 07:45:04;;;;;;;14.55;11.88;;;;;;;;;;5020614;28;20706;-90
2023/05/09 07:47:31;;;;;;;14.82;11.73;;;;;;;;;;5022528;28;20231;-91
2023/05/09 07:50:00;;;;;;;12.43;11.13;;;;;;;;;;5020818;28;20238;-87
2023/05/09 07:52:27;;;;;;;13.98;11.98;;;;;;;;;;5018903;28;20207;-87
2023/05/09 07:54:54;;;;;;;13.23;11.23;;;;;;;;;;5018221;28;20231;-87
2023/05/09 07:57:21;;;;;;;15.00;11.60;;;;;;;;;;5019822;28;20200;-87
2023/05/09 07:59:48;;;;;;;12.95;11.45;;;;;;;;;;5018234;28;20231;-88
2023/05/09 08:02:15;;;;;;;15.50;11.20;;;;;;;;;;5019166;28;20575;-88
2023/05/09 08:04:42;;;;;;;13.50;11.05;;;;;;;;;;5014711;28;20231;-89
2023/05/09 08:07:11;;;;;;;14.48;10.57;;;;;;;;;;5015561;28;20258;-87
2023/05/09 08:09:38;;;;;;;13.77;10.95;;;;;;;;;;5014583;28;20323;-86
2023/05/09 08:12:05;;;;;;;12.52;10.45;;;;;;;;;;5029291;28;20225;-86
2023/05/09 08:14:32;;;;;;;11.35;10.10;;;;;;;;;;5034560;28;20226;-85
2023/05/09 08:16:59;;;;;;;12.23;9.93;;;;;;;;;;5034642;28;20544;-84
2023/05/09 08:19:26;;;;;;;11.02;9.88;;;;;;;;;;5033699;28;20717;-84
2023/05/09 08:21:54;;;;;;;13.48;10.13;;;;;;;;;;5034634;28;20206;-85
2023/05/09 08:24:22;;;;;;;11.77;9.95;;;;;;;;;;5017017;28;20211;-84
2023/05/09 08:26:49;;;;;;;10.77;9.68;;;;;;;;;;5016269;28;20214;-84
2023/05/09 08:29:17;;;;;;;11.57;9.32;;;;;;;;;;5034498;28;20245;-85
2023/05/09 08:31:44;;;;;;;11.57;9.30;;;;;;;;;;5034082;28;20245;-85
2023/05/09 08:34:11;;;;;;;11.32;9.43;;;;;;;;;;5017838;28;20199;-84
2023/05/09 08:36:39;;;;;;;12.15;9.30;;;;;;;;;;5015000;28;20203;-85
2023/05/09 08:39:08;;;;;;;11.20;9.57;;;;;;;;;;5015138;28;20231;-86
2023/05/09 08:41:37;;;;;;;10.50;9.40;;;;;;;;;;5015992;28;20239;-85
2023/05/09 08:44:04;;;;;;;9.75;8.75;;;;;;;;;;5013550;28;20977;-85
2023/05/09 08:46:34;;;;;;;11.45;10.20;;;;;;;;;;5013887;28;20235;-84
2023/05/09 08:49:01;;;;;;;12.40;9.93;;;;;;;;;;5014293;28;20235;-84
2023/05/09 08:51:31;;;;;;;10.50;9.40;;;;;;;;;;5013798;28;20242;-84
2023/05/09 08:53:58;;;;;;;11.32;9.55;;;;;;;;;;5014010;28;20203;-84
2023/05/09 08:56:25;;;;;;;10.35;9.23;;;;;;;;;;5013813;28;20243;-86
2023/05/09 08:58:53;;;;;;;10.45;9.32;;;;;;;;;;5014492;28;20227;-87
2023/05/09 09:01:21;;;;;;;13.68;8.98;;;;;;;;;;5013633;28;20660;-86
2023/05/09 09:03:49;;;;;;;10.68;9.00;;;;;;;;;;5014784;28;20211;-86
2023/05/09 09:06:16;;;;;;;11.32;9.60;;;;;;;;;;5017662;28;20231;-87
2023/05/09 09:08:44;;;;;;;11.73;9.48;;;;;;;;;;5033795;28;20241;-86
2023/05/09 09:11:13;;;;;;;10.15;9.15;;;;;;;;;;5034124;28;20235;-88
2023/05/09 09:13:41;;;;;;;10.82;9.07;;;;;;;;;;5035099;28;20210;-87
2023/05/09 09:16:10;;;;;;;12.20;9.57;;;;;;;;;;5015530;28;20245;-87
2023/05/09 09:18:37;;;;;;;18.15;11.57;;;;;;;;;;5015057;28;20705;-88
2023/05/09 09:21:06;;;;;;;14.90;10.88;;;;;;;;;;5021642;28;20230;-87
2023/05/09 09:23:33;;;;;;;11.10;9.90;;;;;;;;;;5034790;28;20209;-88
2023/05/09 09:26:02;;;;;;;10.52;8.65;;;;;;;;;;5034743;28;20238;-87
2023/05/09 09:28:29;;;;;;;11.00;9.10;;;;;;;;;;5036003;28;20641;-86
2023/05/09 09:30:56;;;;;;;8.95;7.97;;;;;;;;;;5034877;28;20617;-87
2023/05/09 09:33:25;;;;;;;9.23;7.97;;;;;;;;;;5018430;28;20245;-87
2023/05/09 09:35:53;;;;;;;10.63;8.85;;;;;;;;;;5031942;28;20238;-86
2023/05/09 09:38:20;;;;;;;11.48;9.32;;;;;;;;;;5035137;28;20218;-87
2023/05/09 09:40:54;;;;;;;9.43;8.43;;;;;;;;;;5026454;28;20227;-86
2023/05/09 09:43:21;;;;;;;11.43;9.25;;;;;;;;;;5014212;28;20651;-86
2023/05/09 09:45:50;;;;;;;10.30;8.90;;;;;;;;;;5016495;28;20239;-88
2023/05/09 09:48:17;;;;;;;11.32;8.02;;;;;;;;;;5019074;28;20222;-89
2023/05/09 09:50:47;;;;;;;8.27;7.47;;;;;;;;;;5017636;28;20238;-90
2023/05/09 09:53:15;;;;;;;8.65;7.72;;;;;;;;;;5018457;28;20540;-89
2023/05/09 09:55:49;;;;;;;9.57;7.78;;;;;;;;;;5017645;28;20286;-90
2023/05/09 09:58:17;;;;;;;8.85;7.95;;;;;;;;;;5017068;28;20217;-88
2023/05/09 10:00:44;;;;;;;11.65;7.40;;;;;;;;;;5015717;28;20705;-87
2023/05/09 10:03:15;;;;;;;8.00;7.30;;;;;;;;;;5015183;28;20199;-88
2023/05/09 10:05:42;;;;;;;7.68;6.85;;;;;;;;;;5015358;28;20710;-88
2023/05/09 10:08:11;;;;;;;8.32;7.53;;;;;;;;;;5016806;28;20207;-88
2023/05/09 10:10:38;;;;;;;7.55;6.57;;;;;;;;;;5016488;28;20235;-90
2023/05/09 10:13:08;;;;;;;7.40;6.70;;;;;;;;;;5016908;28;20303;-88
2023/05/09 10:15:36;;;;;;;7.28;6.45;;;;;;;;;;5015433;28;20235;-89
2023/05/09 10:18:04;;;;;;;6.22;5.63;;;;;;;;;;5016351;28;20207;-88
2023/05/09 10:20:31;;;;;;;7.65;6.63;;;;;;;;;;5015795;28;20235;-89
2023/05/09 10:23:01;;;;;;;6.75;6.05;;;;;;;;;;5015355;28;20573;-88
2023/05/09 10:25:33;;;;;;;7.40;6.70;;;;;;;;;;5014681;28;20242;-87
2023/05/09 10:28:01;;;;;;;7.85;6.93;;;;;;;;;;5014542;28;20192;-88
2023/05/09 10:30:28;;;;;;;10.18;5.63;;;;;;;;;;5013721;28;20290;-88
2023/05/09 10:32:58;;;;;;;6.28;5.68;;;;;;;;;;5015149;28;20577;-88
2023/05/09 10:35:28;;;;;;;5.47;4.90;;;;;;;;;;5014483;28;20239;-87
2023/05/09 10:37:56;;;;;;;6.40;5.80;;;;;;;;;;5014925;28;20686;-89
2023/05/09 10:40:24;;;;;;;6.13;5.63;;;;;;;;;;5021947;28;20227;-88
2023/05/09 10:42:52;;;;;;;5.70;5.20;;;;;;;;;;5035002;28;20195;-90
2023/05/09 10:45:20;;;;;;;6.70;5.43;;;;;;;;;;5033862;28;20241;-88
2023/05/09 10:47:48;;;;;;;6.38;5.78;;;;;;;;;;5034802;28;20206;-88
2023/05/09 10:50:16;;;;;;;6.55;5.93;;;;;;;;;;5034108;28;20245;-90
2023/05/09 10:53:04;;;;;;;6.68;5.97;;;;;;;;;;5034953;28;20203;-89
2023/05/09 10:55:36;;;;;;;5.95;5.35;;;;;;;;;;5029533;28;20296;-88
2023/05/09 10:58:18;;;;;;;6.97;6.28;;;;;;;;;;5033348;28;20191;-90
2023/05/09 11:00:46;;;;;;;6.28;5.65;;;;;;;;;;5035168;28;20230;-88
2023/05/09 11:03:13;;;;;;;6.22;5.63;;;;;;;;;;5035568;28;20206;-89
2023/05/09 11:05:40;;;;;;;6.40;5.80;;;;;;;;;;5036313;28;20235;-89
2023/05/09 11:08:21;;;;;;;5.90;5.30;;;;;;;;;;5034830;28;20286;-86
2023/05/09 11:10:48;;;;;;;8.75;5.95;;;;;;;;;;5035785;28;20244;-89
2023/05/09 11:13:22;;;;;;;5.53;5.03;;;;;;;;;;5033011;28;20679;-87
2023/05/09 11:16:13;;;;;;;5.18;4.78;;;;;;;;;;5032867;28;20234;-91
2023/05/09 11:18:53;;;;;;;4.80;4.20;;;;;;;;;;5014052;28;20229;-90
2023/05/09 11:21:21;;;;;;;4.95;4.45;;;;;;;;;;5020864;28;20237;-85
2023/05/09 11:23:49;;;;;;;4.63;4.20;;;;;;;;;;5035930;28;20202;-87
2023/05/09 11:26:17;;;;;;;4.97;4.47;;;;;;;;;;5037511;28;20230;-90
2023/05/09 11:28:52;;;;;;;4.35;3.95;;;;;;;;;;5036721;28;20227;-89
2023/05/09 11:31:19;;;;;;;5.05;4.18;;;;;;;;;;5037639;28;20238;-89
2023/05/09 11:33:47;;;;;;;4.65;4.25;;;;;;;;;;5034725;28;20895;-88
2023/05/09 11:36:18;;;;;;;5.40;4.50;;;;;;;;;;5033693;28;20234;-88
2023/05/09 11:38:45;;;;;;;6.03;4.75;;;;;;;;;;5035257;28;20253;-90
2023/05/09 11:41:12;;;;;;;5.47;4.97;;;;;;;;;;5031803;28;20587;-88
2023/05/09 11:43:40;;;;;;;4.45;4.05;;;;;;;;;;5034407;28;20204;-90
2023/05/09 11:46:08;;;;;;;6.93;4.30;;;;;;;;;;5031219;28;20236;-89
2023/05/09 11:48:39;;;;;;;5.70;4.10;;;;;;;;;;5034265;28;20226;-89
2023/05/09 11:51:06;;;;;;;6.05;5.50;;;;;;;;;;5034252;28;20310;-89
2023/05/09 11:53:33;;;;;;;4.80;4.40;;;;;;;;;;5035393;28;20256;-90
2023/05/09 11:56:02;;;;;;;5.13;3.85;;;;;;;;;;5030905;28;20239;-90
2023/05/09 11:58:30;;;;;;;5.65;4.63;;;;;;;;;;5031784;28;20233;-87
2023/05/09 12:00:58;;;;;;;4.30;4.00;;;;;;;;;;5030528;28;20660;-87
2023/05/09 12:03:26;;;;;;;4.15;3.85;;;;;;;;;;5031480;28;20238;-88
2023/05/09 12:05:55;;;;;;;4.63;4.20;;;;;;;;;;5030749;28;20238;-90
2023/05/09 12:08:23;;;;;;;4.78;4.38;;;;;;;;;;5033127;28;20230;-91
2023/05/09 12:10:50;;;;;;;4.10;3.80;;;;;;;;;;5031387;28;20249;-89
2023/05/09 12:13:18;;;;;;;4.82;3.70;;;;;;;;;;5031561;28;20305;-88
2023/05/09 12:15:45;;;;;;;3.63;3.33;;;;;;;;;;5030936;28;20638;-90
2023/05/09 12:18:12;;;;;;;4.75;3.97;;;;;;;;;;5031847;28;20210;-88
2023/05/09 12:20:49;;;;;;;3.67;3.38;;;;;;;;;;5034523;28;20231;-89
2023/05/09 12:23:16;;;;;;;4.05;3.65;;;;;;;;;;5035061;28;20191;-89
2023/05/09 12:25:48;;;;;;;3.33;3.13;;;;;;;;;;5034504;28;20700;-89
2023/05/09 12:28:16;;;;;;;5.18;3.55;;;;;;;;;;5034621;28;20245;-89
2023/05/09 12:30:43;;;;;;;3.70;3.40;;;;;;;;;;5034354;28;20262;-90
2023/05/09 12:33:11;;;;;;;3.72;3.42;;;;;;;;;;5034620;28;20203;-90
2023/05/09 12:35:38;;;;;;;3.88;3.58;;;;;;;;;;5034063;28;20238;-90
2023/05/09 12:38:07;;;;;;;4.68;3.50;;;;;;;;;;5034564;28;20675;-88
2023/05/09 12:40:34;;;;;;;3.88;3.58;;;;;;;;;;5034201;28;20317;-88
2023/05/09 12:43:03;;;;;;;3.72;3.40;;;;;;;;;;5035136;28;20207;-90
2023/05/09 12:45:32;;;;;;;5.50;3.63;;;;;;;;;;5033742;28;20241;-90
2023/05/09 12:48:01;;;;;;;3.70;3.40;;;;;;;;;;5034413;28;20202;-89
2023/05/09 12:50:33;;;;;;;3.92;3.60;;;;;;;;;;5033453;28;20317;-86
2023/05/09 12:53:03;;;;;;;5.07;3.47;;;;;;;;;;5034307;28;20198;-83
2023/05/09 12:55:31;;;;;;;3.80;3.50;;;;;;;;;;5033238;28;20234;-83
2023/05/09 12:57:59;;;;;;;3.40;3.10;;;;;;;;;;5033876;28;20684;-82
2023/05/09 13:00:26;;;;;;;3.38;3.08;;;;;;;;;;5033261;28;20241;-83
2023/05/09 13:02:53;;;;;;;4.25;3.40;;;;;;;;;;5033556;28;20700;-82
2023/05/09 13:05:21;;;;;;;3.55;3.20;;;;;;;;;;5033197;28;20245;-82
2023/05/09 13:07:49;;;;;;;6.80;3.40;;;;;;;;;;5033497;28;20420;-82
2023/05/09 13:10:18;;;;;;;3.40;3.10;;;;;;;;;;5033228;28;20318;-82
2023/05/09 13:12:47;;;;;;;3.47;3.17;;;;;;;;;;5033337;28;20207;-82
2023/05/09 13:15:15;;;;;;;3.83;3.28;;;;;;;;;;5033305;28;20237;-82
2023/05/09 13:17:42;;;;;;;5.72;3.08;;;;;;;;;;5033728;28;20215;-83
2023/05/09 13:20:09;;;;;;;3.47;3.17;;;;;;;;;;5033104;28;20238;-83
2023/05/09 13:22:36;;;;;;;3.75;3.45;;;;;;;;;;5033434;28;20207;-83
2023/05/09 13:25:03;;;;;;;4.40;3.05;;;;;;;;;;5032948;28;20241;-83
2023/05/09 13:27:31;;;;;;;3.85;3.25;;;;;;;;;;5033465;28;20209;-84
2023/05/09 13:29:59;;;;;;;3.03;2.83;;;;;;;;;;5032467;28;20238;-82
2023/05/09 13:32:26;;;;;;;4.15;2.80;;;;;;;;;;5033323;28;20210;-83
2023/05/09 13:34:53;;;;;;;2.92;2.72;;;;;;;;;;5032622;28;20708;-83
2023/05/09 13:37:21;;;;;;;2.90;2.67;;;;;;;;;;5033273;28;20214;-84
2023/05/09 13:39:48;;;;;;;5.50;2.80;;;;;;;;;;5032605;28;20234;-83
2023/05/09 13:42:15;;;;;;;6.00;3.22;;;;;;;;;;5033087;28;20213;-84
2023/05/09 13:44:42;;;;;;;3.05;2.85;;;;;;;;;;5032348;28;20574;-83
2023/05/09 13:47:11;;;;;;;3.05;2.85;;;;;;;;;;5032967;28;20670;-82
2023/05/09 13:49:38;;;;;;;3.40;3.10;;;;;;;;;;5032421;28;20321;-83
2023/05/09 13:52:05;;;;;;;2.90;2.70;;;;;;;;;;5032746;28;20234;-83
2023/05/09 13:54:33;;;;;;;2.80;2.58;;;;;;;;;;5032393;28;20234;-84
2023/05/09 13:57:01;;;;;;;3.42;3.13;;;;;;;;;;5033053;28;20206;-83
2023/05/09 13:59:28;;;;;;;3.25;2.97;;;;;;;;;;5032043;28;20246;-83
2023/05/09 14:01:57;;;;;;;3.13;2.92;;;;;;;;;;5032559;28;20211;-81
2023/05/09 14:04:26;;;;;;;3.63;3.00;;;;;;;;;;5031883;28;20677;-83
2023/05/09 14:06:53;;;;;;;5.22;2.90;;;;;;;;;;5032897;28;20238;-84
2023/05/09 14:09:21;;;;;;;4.07;3.20;;;;;;;;;;5032427;28;20284;-85
2023/05/09 14:11:49;;;;;;;5.25;2.78;;;;;;;;;;5032941;28;20293;-84
2023/05/09 14:14:16;;;;;;;3.35;3.05;;;;;;;;;;5031842;28;20288;-84
2023/05/09 14:16:43;;;;;;;7.22;3.83;;;;;;;;;;5032197;28;20579;-83
2023/05/09 14:19:10;;;;;;;3.55;2.80;;;;;;;;;;5031603;28;20227;-82
2023/05/09 14:21:39;;;;;;;3.92;2.80;;;;;;;;;;5032048;28;20202;-86
2023/05/09 14:24:06;;;;;;;3.05;2.80;;;;;;;;;;5032088;28;20225;-82
2023/05/09 14:26:33;;;;;;;2.97;2.60;;;;;;;;;;5031618;28;20238;-81
2023/05/09 14:29:01;;;;;;;2.85;2.63;;;;;;;;;;5030892;28;20226;-81
2023/05/09 14:31:28;;;;;;;3.15;2.95;;;;;;;;;;5031150;28;20230;-82